Pagrindinis puslapis
METAR-TAF:

METAR-TAF

Oro uostai :

Gaziantepas, Turkija

platuma: 37-05N, ilguma: 037-22E, Aukštis: 701 m

Dabartinis oras

Ataskaita buvo paskelbta 28 minutes, ne 13:20 UTC
Vėjas 5 kt iš Vakarų/Pietvakarių, svyruoja nuo Pietų/Pietryčių ir Vakarų/Šiaurės Vakarų
Temperatūra 30°C
Drėgmė 15%
Slėgis 1009 hPa
Matomumas 10 km arba daugiau
nėra debesų žemiau 1500 m ir nėra kamuolinių lietaus debesų

METAR: LTAJ 121320Z 25005KT 150V290 CAVOK 30/01 Q1009 NOSIG RMK RWY10 24005KT 200V280 2AC120

Laikas: 16:48 (13:48 UTC)

Prognozė

Ataskaita buvo paskelbta 3 valandos ir 8 minutes, ne 10:40 UTC
Prognozė galioja nuo 12 metu 12 UTC su 13 metu 12 UTC
Vėjas 2 kt nuo kintamojo kryptimis
Matomumas 10 km arba daugiau
nėra debesų žemiau 1500 m ir nėra kamuolinių lietaus debesų
Laikinai
nuo 12 metu 12 UTC su 12 metu 16 UTC
Vėjas 12 kt iš Vakarų/Pietvakarių

TAF: LTAJ 121040Z 1212/1312 VRB02KT CAVOK TEMPO 1212/1216 24012KT

Orai ataskaitas ir orų prognozės (METAR, TAF).

turimą stotys yra geltonos ir raudonos taškus žemėlapyje.

Perkelti pele per norėdami pamatyti stoties vardą.

Tada spustelėkite, norėdami matyti oro stebėjimo ir prognozės.

Norėdami pakeisti žemėlapį: spustelėkite ant žalios mygtukų su juodo kryžiaus žemyn,; žalią mygtuką su brūkšneliu, jei norite nutolinti; arba žalių rodyklių gretimoms žemėlapius.


METAR-TAF: